Time;durP1;ratioP1;P1;durP2;ratioP2;P2;SDS_P1;SDS_P2;PMS_P1;PMS_P2;Temp;Humidity;BMP_temperature;BMP_pressure;BME280_temperature;BME280_humidity;BME280_pressure;Samples;Min_cycle;Max_cycle;Signal;HPM_P1;HPM_P2
2023/10/21 00:00:08;;;;;;;3.63;1.20;;;13.00;99.90;;;;;;5075713;28;20459;-78
2023/10/21 00:02:35;;;;;;;2.97;1.27;;;12.90;99.90;;;;;;5094093;28;20942;-78
2023/10/21 00:05:02;;;;;;;1.67;1.07;;;13.00;99.90;;;;;;5096955;28;20480;-79
2023/10/21 00:07:29;;;;;;;3.03;1.57;;;12.90;99.90;;;;;;5088221;28;21284;-79
2023/10/21 00:09:58;;;;;;;1.50;1.00;;;12.90;99.90;;;;;;5093211;28;20505;-78
2023/10/21 00:12:25;;;;;;;3.80;1.10;;;12.90;99.90;;;;;;5094316;28;20504;-79
2023/10/21 00:14:52;;;;;;;2.47;1.30;;;12.90;99.90;;;;;;5077533;28;20450;-79
2023/10/21 00:17:19;;;;;;;2.60;1.30;;;12.90;99.90;;;;;;5082964;28;20456;-79
2023/10/21 00:19:46;;;;;;;2.73;1.20;;;12.90;99.90;;;;;;5096680;28;20549;-78
2023/10/21 00:22:13;;;;;;;2.43;1.40;;;12.90;99.90;;;;;;5096373;28;20478;-79
2023/10/21 00:24:39;;;;;;;4.27;1.77;;;12.90;99.90;;;;;;5096848;28;20460;-79
2023/10/21 00:27:07;;;;;;;2.77;1.73;;;12.90;99.90;;;;;;5089307;28;20469;-79
2023/10/21 00:29:35;;;;;;;6.23;1.40;;;12.90;99.90;;;;;;5095427;28;20479;-78
2023/10/21 00:32:04;;;;;;;1.80;1.10;;;12.90;99.90;;;;;;5093231;28;21014;-78
2023/10/21 00:34:31;;;;;;;1.90;1.10;;;12.90;99.90;;;;;;5094430;28;20462;-77
2023/10/21 00:36:58;;;;;;;2.17;1.33;;;12.90;99.90;;;;;;5097523;28;20464;-77
2023/10/21 00:39:25;;;;;;;1.90;1.20;;;12.90;99.90;;;;;;5087648;28;20503;-77
2023/10/21 00:41:52;;;;;;;3.50;1.10;;;12.90;99.90;;;;;;5076833;28;20960;-79
2023/10/21 00:44:20;;;;;;;2.40;1.23;;;12.90;99.90;;;;;;5091461;28;20452;-78
2023/10/21 00:46:47;;;;;;;1.63;1.17;;;12.90;99.90;;;;;;5094726;28;20451;-79
2023/10/21 00:49:14;;;;;;;3.20;1.20;;;13.00;99.90;;;;;;5088928;28;20464;-79
2023/10/21 00:51:42;;;;;;;1.77;1.17;;;13.00;99.90;;;;;;5095839;28;20964;-77
2023/10/21 00:54:09;;;;;;;2.60;1.10;;;13.00;99.90;;;;;;5096275;28;20459;-77
2023/10/21 00:56:36;;;;;;;1.70;1.00;;;13.00;99.90;;;;;;5096821;28;20472;-78
2023/10/21 00:59:03;;;;;;;2.07;1.10;;;13.00;99.90;;;;;;5095717;28;20527;-79
2023/10/21 01:01:31;;;;;;;2.40;1.03;;;13.00;99.90;;;;;;5096802;28;20951;-79
2023/10/21 01:03:58;;;;;;;1.80;1.20;;;13.00;99.90;;;;;;5090807;28;20459;-79
2023/10/21 01:06:26;;;;;;;3.07;1.40;;;13.00;99.90;;;;;;5086209;28;20459;-78
2023/10/21 01:08:53;;;;;;;2.37;1.40;;;13.00;99.90;;;;;;5080640;28;20506;-79
2023/10/21 01:11:20;;;;;;;3.10;1.70;;;13.00;99.90;;;;;;5097144;28;20452;-79
2023/10/21 01:13:48;;;;;;;1.90;1.27;;;13.00;99.90;;;;;;5079810;28;20471;-79
2023/10/21 01:16:15;;;;;;;1.60;1.00;;;13.00;99.90;;;;;;5090076;28;20464;-79
2023/10/21 01:18:43;;;;;;;3.30;1.27;;;13.00;99.90;;;;;;5095360;28;21123;-79
2023/10/21 01:21:10;;;;;;;2.90;1.20;;;13.00;99.90;;;;;;5091667;28;21071;-79
2023/10/21 01:23:39;;;;;;;1.60;0.97;;;13.10;99.90;;;;;;5097030;28;20477;-79
2023/10/21 01:26:06;;;;;;;1.70;1.10;;;13.10;99.90;;;;;;5098825;28;20464;-78
2023/10/21 01:28:33;;;;;;;1.83;1.07;;;13.10;99.90;;;;;;5093001;28;20905;-77
2023/10/21 01:31:01;;;;;;;1.70;1.20;;;13.10;99.90;;;;;;5093719;28;20829;-77
2023/10/21 01:33:28;;;;;;;2.50;1.07;;;13.10;99.90;;;;;;5093506;28;20473;-77
2023/10/21 01:35:54;;;;;;;4.80;1.43;;;13.10;99.90;;;;;;5085406;28;20450;-77
2023/10/21 01:38:21;;;;;;;2.33;1.40;;;13.20;99.90;;;;;;5093334;28;21026;-77
2023/10/21 01:40:50;;;;;;;3.40;1.03;;;13.20;99.90;;;;;;5094023;28;20479;-78
2023/10/21 01:43:17;;;;;;;3.20;1.10;;;13.30;99.90;;;;;;5093636;28;20469;-78
2023/10/21 01:45:44;;;;;;;5.57;1.10;;;13.30;99.90;;;;;;5093381;28;20942;-79
2023/10/21 01:48:10;;;;;;;3.90;1.10;;;13.30;99.90;;;;;;5092036;28;20475;-77
2023/10/21 01:50:37;;;;;;;2.00;1.20;;;13.30;99.90;;;;;;5085735;28;20456;-76
2023/10/21 01:53:05;;;;;;;3.43;1.10;;;13.30;99.90;;;;;;5090990;28;20477;-78
2023/10/21 01:55:33;;;;;;;1.73;0.97;;;13.30;99.90;;;;;;5077316;28;20852;-77
2023/10/21 01:58:01;;;;;;;1.67;1.17;;;13.30;99.90;;;;;;5085919;28;20456;-77
2023/10/21 02:00:28;;;;;;;1.50;1.00;;;13.40;99.90;;;;;;5090022;28;20458;-77
2023/10/21 02:02:56;;;;;;;2.57;0.90;;;13.40;99.90;;;;;;5093493;28;20473;-77
2023/10/21 02:05:24;;;;;;;2.80;1.17;;;13.50;99.90;;;;;;5089719;28;20458;-77
2023/10/21 02:07:52;;;;;;;2.93;1.10;;;13.50;99.90;;;;;;5070137;28;20833;-77
2023/10/21 02:10:19;;;;;;;2.07;1.03;;;13.50;99.90;;;;;;5085000;28;20443;-77
2023/10/21 02:12:46;;;;;;;2.73;1.23;;;13.50;99.90;;;;;;5084225;28;20504;-76
2023/10/21 02:15:14;;;;;;;5.67;1.03;;;13.60;99.90;;;;;;5093199;28;20448;-77
2023/10/21 02:17:42;;;;;;;1.80;1.10;;;13.60;99.90;;;;;;5083475;28;20464;-77
2023/10/21 02:20:10;;;;;;;3.27;1.30;;;13.60;99.90;;;;;;5090355;28;20495;-77
2023/10/21 02:22:37;;;;;;;1.60;1.10;;;13.60;99.90;;;;;;5087881;28;20477;-77
2023/10/21 02:25:04;;;;;;;4.70;1.50;;;13.60;99.90;;;;;;5093129;28;20451;-77
2023/10/21 02:27:31;;;;;;;4.30;1.20;;;13.70;99.90;;;;;;5089358;28;20462;-76
2023/10/21 02:29:59;;;;;;;2.30;1.20;;;13.70;99.90;;;;;;5085325;28;20453;-77
2023/10/21 02:32:27;;;;;;;4.63;1.10;;;13.70;99.90;;;;;;5092816;28;20477;-78
2023/10/21 02:34:55;;;;;;;2.10;1.30;;;13.70;99.90;;;;;;5088530;28;21003;-77
2023/10/21 02:37:22;;;;;;;2.00;1.00;;;13.70;99.90;;;;;;5092824;28;20461;-77
2023/10/21 02:39:49;;;;;;;1.50;1.00;;;13.70;99.90;;;;;;5076228;28;20575;-77
2023/10/21 02:42:16;;;;;;;1.87;1.03;;;13.70;99.90;;;;;;5088120;28;20476;-77
2023/10/21 02:44:43;;;;;;;3.20;1.00;;;13.80;99.90;;;;;;5093121;28;20473;-76
2023/10/21 02:47:09;;;;;;;1.70;1.03;;;13.80;99.90;;;;;;5078226;28;20950;-77
2023/10/21 02:49:37;;;;;;;1.60;1.10;;;13.80;99.90;;;;;;5083929;28;20462;-77
2023/10/21 02:52:04;;;;;;;1.70;1.00;;;13.80;99.90;;;;;;5093093;28;20470;-78
2023/10/21 02:54:31;;;;;;;2.57;1.10;;;13.80;99.90;;;;;;5091124;28;20945;-77
2023/10/21 02:56:58;;;;;;;1.63;1.10;;;13.80;99.90;;;;;;5085986;28;20465;-76
2023/10/21 02:59:25;;;;;;;3.70;0.97;;;13.80;99.90;;;;;;5092449;28;20493;-77
2023/10/21 03:01:52;;;;;;;1.73;1.00;;;13.80;99.90;;;;;;5092932;28;20451;-77
2023/10/21 03:04:19;;;;;;;3.23;1.27;;;13.80;99.90;;;;;;5085235;28;20451;-77
2023/10/21 03:06:47;;;;;;;2.00;1.30;;;13.80;99.90;;;;;;5090454;28;20461;-77
2023/10/21 03:09:15;;;;;;;3.13;1.30;;;13.80;99.90;;;;;;5088249;28;20442;-77
2023/10/21 03:11:42;;;;;;;1.60;1.03;;;13.80;99.90;;;;;;5094091;28;20529;-77
2023/10/21 03:14:09;;;;;;;2.33;1.07;;;13.80;99.90;;;;;;5096806;28;20446;-77
2023/10/21 03:16:37;;;;;;;2.37;1.40;;;13.80;99.90;;;;;;5096953;28;20447;-78
2023/10/21 03:19:04;;;;;;;2.43;1.20;;;13.80;99.90;;;;;;5086937;28;20825;-77
2023/10/21 03:21:31;;;;;;;2.00;1.10;;;13.80;99.90;;;;;;5096560;28;20778;-78
2023/10/21 03:23:59;;;;;;;2.30;1.20;;;13.80;99.90;;;;;;5095183;28;20485;-77
2023/10/21 03:26:26;;;;;;;4.13;1.30;;;13.80;99.90;;;;;;5096697;28;20453;-78
2023/10/21 03:28:53;;;;;;;3.50;1.63;;;13.80;99.90;;;;;;5088004;28;20451;-78
2023/10/21 03:31:21;;;;;;;2.33;1.40;;;13.80;99.90;;;;;;5096537;28;20455;-77
2023/10/21 03:33:48;;;;;;;1.80;1.27;;;13.80;99.90;;;;;;5087372;28;20484;-77
2023/10/21 03:36:15;;;;;;;2.13;1.30;;;13.80;99.90;;;;;;5096312;28;20452;-77
2023/10/21 03:38:42;;;;;;;2.50;1.43;;;13.80;99.90;;;;;;5095307;28;20504;-77
2023/10/21 03:41:12;;;;;;;2.33;1.20;;;13.80;99.90;;;;;;5081932;28;20512;-77
2023/10/21 03:43:39;;;;;;;3.47;1.47;;;13.80;99.90;;;;;;5094060;28;20485;-76
2023/10/21 03:46:07;;;;;;;2.70;1.13;;;13.80;99.90;;;;;;5087428;28;20455;-77
2023/10/21 03:48:35;;;;;;;4.70;1.97;;;13.80;99.90;;;;;;5079698;28;20473;-77
2023/10/21 03:51:06;;;;;;;1.80;1.30;;;13.80;99.90;;;;;;5080911;28;20545;-76
2023/10/21 03:53:33;;;;;;;3.33;1.43;;;13.80;99.90;;;;;;5096177;28;20474;-77
2023/10/21 03:56:00;;;;;;;2.87;1.50;;;13.80;99.90;;;;;;5095298;28;20485;-77
2023/10/21 03:58:28;;;;;;;2.50;1.50;;;13.80;99.90;;;;;;5089695;28;20453;-76
2023/10/21 04:00:57;;;;;;;4.00;1.47;;;13.80;99.90;;;;;;5091731;28;20547;-76
2023/10/21 04:03:24;;;;;;;3.27;1.40;;;13.80;99.90;;;;;;5091152;28;20520;-76
2023/10/21 04:05:51;;;;;;;3.10;1.30;;;13.80;99.90;;;;;;5095992;28;20466;-77
2023/10/21 04:08:18;;;;;;;3.53;1.90;;;13.80;99.90;;;;;;5089969;28;20546;-77
2023/10/21 04:10:45;;;;;;;3.20;1.40;;;13.80;99.90;;;;;;5095906;28;20464;-78
2023/10/21 04:13:12;;;;;;;2.60;1.97;;;13.90;99.90;;;;;;5086705;28;20557;-78
2023/10/21 04:15:41;;;;;;;2.37;1.43;;;13.80;99.90;;;;;;5094900;28;20952;-77
2023/10/21 04:18:07;;;;;;;7.07;1.30;;;13.90;99.90;;;;;;5089538;28;20461;-77
2023/10/21 04:20:34;;;;;;;3.23;1.70;;;14.00;99.90;;;;;;5078089;28;20492;-77
2023/10/21 04:23:01;;;;;;;2.30;1.50;;;13.90;99.90;;;;;;5095434;28;20887;-78
2023/10/21 04:25:29;;;;;;;2.30;1.43;;;14.00;99.90;;;;;;5086019;28;20468;-78
2023/10/21 04:27:56;;;;;;;2.10;1.30;;;14.00;99.90;;;;;;5082202;28;20465;-78
2023/10/21 04:30:23;;;;;;;4.87;1.83;;;14.00;99.90;;;;;;5084893;28;20852;-78
2023/10/21 04:32:51;;;;;;;3.37;2.20;;;14.00;99.90;;;;;;5094690;28;20528;-76
2023/10/21 04:35:19;;;;;;;3.07;2.27;;;14.00;99.90;;;;;;5089365;28;21022;-77
2023/10/21 04:37:46;;;;;;;4.80;1.67;;;14.00;99.90;;;;;;5093509;28;20536;-77
2023/10/21 04:40:13;;;;;;;2.60;2.07;;;14.00;99.90;;;;;;5094737;28;20496;-77
2023/10/21 04:42:40;;;;;;;2.00;1.57;;;14.00;99.90;;;;;;5095234;28;20842;-77
2023/10/21 04:45:09;;;;;;;3.30;1.80;;;14.00;99.90;;;;;;5087218;28;20515;-77
2023/10/21 04:47:37;;;;;;;2.30;2.10;;;14.00;99.90;;;;;;5094607;28;20442;-77
2023/10/21 04:50:06;;;;;;;3.10;2.03;;;14.00;99.90;;;;;;5094811;28;20452;-77
2023/10/21 04:52:33;;;;;;;3.30;1.90;;;14.00;99.90;;;;;;5084149;28;20578;-77
2023/10/21 04:55:01;;;;;;;2.67;2.00;;;14.00;99.90;;;;;;5094693;28;20455;-77
2023/10/21 04:57:27;;;;;;;2.83;1.97;;;14.00;99.90;;;;;;5094697;28;20458;-77
2023/10/21 04:59:54;;;;;;;3.07;2.20;;;14.10;99.90;;;;;;5091022;28;20521;-78
2023/10/21 05:02:21;;;;;;;2.10;1.50;;;14.10;99.90;;;;;;5090266;28;20495;-79
2023/10/21 05:04:49;;;;;;;2.87;2.07;;;14.10;99.90;;;;;;5094048;28;20469;-77
2023/10/21 05:07:18;;;;;;;2.60;1.73;;;14.10;99.90;;;;;;5094784;28;20485;-76
2023/10/21 05:09:44;;;;;;;3.57;1.93;;;14.10;99.90;;;;;;5088517;28;20456;-78
2023/10/21 05:12:11;;;;;;;5.00;2.10;;;14.20;99.90;;;;;;5094522;28;20602;-78
2023/10/21 05:14:38;;;;;;;5.10;2.17;;;14.20;99.90;;;;;;5086539;28;21051;-79
2023/10/21 05:17:05;;;;;;;2.77;2.47;;;14.20;99.90;;;;;;5094458;28;20480;-78
2023/10/21 05:19:32;;;;;;;5.77;3.13;;;14.20;99.90;;;;;;5093765;28;20494;-78
2023/10/21 05:21:59;;;;;;;2.90;1.97;;;14.20;99.90;;;;;;5095015;28;20475;-78
2023/10/21 05:24:27;;;;;;;4.17;2.70;;;14.10;99.90;;;;;;5092139;28;20458;-78
2023/10/21 05:26:54;;;;;;;4.10;2.80;;;14.10;99.90;;;;;;5094480;28;20518;-79
2023/10/21 05:29:21;;;;;;;5.67;2.07;;;14.10;99.90;;;;;;5091267;28;20460;-79
2023/10/21 05:31:49;;;;;;;7.27;2.27;;;14.20;99.90;;;;;;5082354;28;20902;-79
2023/10/21 05:34:18;;;;;;;3.60;2.40;;;14.20;99.90;;;;;;5094773;28;20830;-78
2023/10/21 05:36:45;;;;;;;4.50;2.20;;;14.20;99.90;;;;;;5089781;28;20476;-78
2023/10/21 05:39:13;;;;;;;4.30;2.20;;;14.20;99.90;;;;;;5076866;28;20454;-77
2023/10/21 05:41:41;;;;;;;6.10;3.67;;;14.20;99.90;;;;;;5085685;28;20458;-77
2023/10/21 05:44:09;;;;;;;5.50;2.50;;;14.30;99.90;;;;;;5095266;28;20842;-77
2023/10/21 05:46:35;;;;;;;3.80;2.57;;;14.20;99.90;;;;;;5095011;28;20460;-77
2023/10/21 05:49:02;;;;;;;4.30;2.43;;;14.30;99.90;;;;;;5080559;28;20808;-78
2023/10/21 05:51:29;;;;;;;4.03;2.37;;;14.30;99.90;;;;;;5092238;28;20448;-80
2023/10/21 05:53:57;;;;;;;3.70;2.60;;;14.20;99.90;;;;;;5092119;28;20485;-79
2023/10/21 05:56:24;;;;;;;2.90;2.10;;;14.30;99.90;;;;;;5094578;28;20447;-79
2023/10/21 05:58:52;;;;;;;4.73;2.27;;;14.30;99.90;;;;;;5086349;28;20457;-79
2023/10/21 06:01:19;;;;;;;5.40;2.43;;;14.20;99.90;;;;;;5086294;28;20999;-79
2023/10/21 06:03:46;;;;;;;5.20;2.60;;;14.20;99.90;;;;;;5094838;28;20505;-78
2023/10/21 06:06:13;;;;;;;3.70;2.47;;;14.10;99.90;;;;;;5074374;28;20447;-77
2023/10/21 06:08:39;;;;;;;4.97;2.40;;;14.10;99.90;;;;;;5071127;28;20463;-78
2023/10/21 06:11:08;;;;;;;2.87;2.00;;;14.00;99.90;;;;;;5081522;28;21152;-78
2023/10/21 06:13:34;;;;;;;2.90;2.17;;;14.00;99.90;;;;;;5083326;28;20479;-78
2023/10/21 06:16:03;;;;;;;6.53;2.57;;;14.00;99.90;;;;;;5091765;28;21133;-78
2023/10/21 06:18:30;;;;;;;2.53;2.33;;;13.90;99.90;;;;;;5074597;28;20452;-78
2023/10/21 06:20:56;;;;;;;3.40;1.83;;;13.90;99.90;;;;;;5092205;28;20489;-80
2023/10/21 06:23:23;;;;;;;3.67;2.50;;;13.80;99.90;;;;;;5089233;28;21017;-79
2023/10/21 06:25:50;;;;;;;2.83;2.43;;;13.70;99.90;;;;;;5084873;28;20456;-79
2023/10/21 06:28:17;;;;;;;3.60;2.47;;;13.70;99.90;;;;;;5077886;28;20759;-79
2023/10/21 06:30:44;;;;;;;5.37;3.00;;;13.70;99.90;;;;;;5086426;28;20945;-79
2023/10/21 06:33:12;;;;;;;4.33;2.80;;;13.70;99.90;;;;;;5083714;28;20992;-80
2023/10/21 06:35:39;;;;;;;2.97;2.60;;;13.70;99.90;;;;;;5087458;28;20461;-79
2023/10/21 06:38:07;;;;;;;3.63;2.67;;;13.60;99.90;;;;;;5085623;28;21032;-79
2023/10/21 06:40:34;;;;;;;3.80;2.30;;;13.60;99.90;;;;;;5078543;28;20568;-79
2023/10/21 06:43:00;;;;;;;3.33;2.50;;;13.60;99.90;;;;;;5078555;28;20474;-77
2023/10/21 06:45:27;;;;;;;4.20;2.57;;;13.60;99.90;;;;;;5082687;28;20444;-78
2023/10/21 06:47:54;;;;;;;2.93;2.60;;;13.60;99.90;;;;;;5078278;28;20583;-77
2023/10/21 06:50:23;;;;;;;4.03;2.70;;;13.60;99.90;;;;;;5080061;28;20447;-78
2023/10/21 06:52:50;;;;;;;2.90;2.40;;;13.60;99.90;;;;;;5080404;28;20475;-78
2023/10/21 06:55:17;;;;;;;4.03;3.27;;;13.60;99.90;;;;;;5086436;28;20453;-77
2023/10/21 06:57:45;;;;;;;4.03;2.67;;;13.70;99.90;;;;;;5084211;28;20457;-76
2023/10/21 07:00:13;;;;;;;3.20;2.90;;;13.70;99.90;;;;;;5082056;28;20576;-77
2023/10/21 07:02:40;;;;;;;4.50;3.10;;;13.70;99.90;;;;;;5093145;28;20536;-78
2023/10/21 07:05:09;;;;;;;3.20;2.43;;;13.80;99.90;;;;;;5087784;28;20498;-78
2023/10/21 07:07:40;;;;;;;4.73;2.50;;;13.80;99.90;;;;;;5095612;28;20486;-78
2023/10/21 07:10:09;;;;;;;3.90;3.00;;;13.90;99.90;;;;;;5087490;28;20460;-77
2023/10/21 07:12:38;;;;;;;3.70;2.80;;;13.90;99.90;;;;;;5100121;28;20493;-79
2023/10/21 07:15:07;;;;;;;3.00;2.70;;;13.90;99.90;;;;;;5101527;28;20451;-77
2023/10/21 07:17:34;;;;;;;3.10;2.00;;;14.00;99.90;;;;;;5093142;28;20526;-78
2023/10/21 07:20:04;;;;;;;4.20;2.37;;;14.10;99.90;;;;;;5082165;28;20494;-78
2023/10/21 07:22:30;;;;;;;3.73;2.10;;;14.10;99.90;;;;;;5082140;28;20474;-77
2023/10/21 07:25:00;;;;;;;4.60;2.20;;;14.20;99.90;;;;;;5083369;28;20458;-78
2023/10/21 07:27:27;;;;;;;2.93;1.20;;;14.20;99.90;;;;;;5084391;28;20439;-77
2023/10/21 07:29:55;;;;;;;2.40;1.50;;;14.30;99.90;;;;;;5084957;28;20450;-78
2023/10/21 07:32:23;;;;;;;1.93;1.30;;;14.40;99.90;;;;;;5084891;28;20469;-78
2023/10/21 07:34:51;;;;;;;2.30;1.57;;;14.40;99.90;;;;;;5082148;28;20457;-77
2023/10/21 07:37:18;;;;;;;2.27;1.70;;;14.50;99.90;;;;;;5075263;28;20450;-78
2023/10/21 07:39:44;;;;;;;3.90;1.40;;;14.50;99.90;;;;;;5094141;28;20825;-78
2023/10/21 07:42:14;;;;;;;1.90;1.40;;;14.60;99.90;;;;;;5095528;28;20473;-77
2023/10/21 07:44:42;;;;;;;1.70;1.50;;;14.60;99.90;;;;;;5096223;28;20451;-78
2023/10/21 07:47:09;;;;;;;1.80;1.27;;;14.60;99.90;;;;;;5095871;28;20454;-78
2023/10/21 07:49:35;;;;;;;1.90;1.40;;;14.50;99.90;;;;;;5094382;28;20467;-78
2023/10/21 07:52:03;;;;;;;2.10;1.20;;;14.40;99.90;;;;;;5096434;28;20463;-79
2023/10/21 07:54:30;;;;;;;5.83;1.47;;;14.40;99.90;;;;;;5088286;28;20638;-78
2023/10/21 07:56:56;;;;;;;1.57;0.90;;;14.50;99.90;;;;;;5079453;28;20480;-78
2023/10/21 07:59:27;;;;;;;7.30;1.80;;;14.50;99.90;;;;;;5083129;28;20479;-79
2023/10/21 08:01:54;;;;;;;2.10;0.80;;;14.50;99.90;;;;;;5084486;28;20544;-79
2023/10/21 08:04:21;;;;;;;4.03;1.07;;;14.40;99.90;;;;;;5091405;28;20467;-79
2023/10/21 08:06:48;;;;;;;3.30;0.83;;;14.40;99.90;;;;;;5095944;28;20463;-78
2023/10/21 08:09:15;;;;;;;1.80;0.90;;;14.30;99.90;;;;;;5095610;28;20446;-78
2023/10/21 08:11:43;;;;;;;4.47;1.03;;;14.30;99.90;;;;;;5088299;28;20454;-80
2023/10/21 08:14:10;;;;;;;1.80;1.20;;;14.30;99.90;;;;;;5096143;28;20460;-79
2023/10/21 08:16:38;;;;;;;2.70;0.90;;;14.30;99.90;;;;;;5087518;28;20480;-78
2023/10/21 08:19:05;;;;;;;2.57;1.30;;;14.20;99.90;;;;;;5094661;28;20820;-77
2023/10/21 08:21:33;;;;;;;2.60;1.00;;;14.20;99.90;;;;;;5078346;28;20501;-79
2023/10/21 08:24:02;;;;;;;4.03;0.90;;;14.20;99.90;;;;;;5095594;28;20455;-79
2023/10/21 08:26:29;;;;;;;1.50;0.90;;;14.10;99.90;;;;;;5094719;28;20461;-80
2023/10/21 08:28:56;;;;;;;1.60;0.97;;;14.20;99.90;;;;;;5083378;28;20482;-78
2023/10/21 08:31:24;;;;;;;5.30;1.20;;;14.20;99.90;;;;;;5095952;28;20448;-79
2023/10/21 08:33:52;;;;;;;1.90;1.10;;;14.40;99.90;;;;;;5093368;28;20811;-79
2023/10/21 08:36:20;;;;;;;1.70;1.07;;;14.40;99.90;;;;;;5094987;28;20451;-80
2023/10/21 08:38:48;;;;;;;1.90;0.80;;;14.50;99.90;;;;;;5094547;28;20908;-78
2023/10/21 08:41:15;;;;;;;1.63;1.00;;;14.60;99.90;;;;;;5094738;28;21015;-81
2023/10/21 08:43:46;;;;;;;2.47;0.90;;;14.60;99.90;;;;;;5091769;28;20489;-79
2023/10/21 08:46:14;;;;;;;2.97;1.20;;;14.60;99.90;;;;;;5089989;28;20447;-81
2023/10/21 08:48:43;;;;;;;1.63;1.07;;;14.50;99.90;;;;;;5094186;28;20459;-79
2023/10/21 08:51:16;;;;;;;2.73;1.00;;;14.50;99.90;;;;;;5096543;28;20540;-78
2023/10/21 08:53:47;;;;;;;1.63;0.93;;;14.50;99.90;;;;;;5068383;28;20483;-79
2023/10/21 08:56:14;;;;;;;2.43;0.77;;;14.40;99.90;;;;;;5070732;28;20827;-78
2023/10/21 08:58:42;;;;;;;1.60;0.80;;;14.50;99.90;;;;;;5070754;28;20459;-78
2023/10/21 09:01:10;;;;;;;1.40;0.77;;;14.50;99.90;;;;;;5074112;28;20484;-80
2023/10/21 09:03:37;;;;;;;3.33;1.40;;;14.40;99.90;;;;;;5078807;28;20458;-78
2023/10/21 09:06:07;;;;;;;1.83;0.70;;;14.50;99.90;;;;;;5079769;28;20447;-80
2023/10/21 09:08:35;;;;;;;1.63;0.90;;;14.50;99.90;;;;;;5077364;28;20462;-79
2023/10/21 09:11:06;;;;;;;1.60;0.80;;;14.60;99.90;;;;;;5079500;28;20455;-78
2023/10/21 09:13:33;;;;;;;2.07;0.93;;;14.60;99.90;;;;;;5078485;28;20487;-79
2023/10/21 09:16:04;;;;;;;2.17;0.90;;;14.70;99.90;;;;;;5075863;28;20460;-78
2023/10/21 09:18:32;;;;;;;2.00;0.70;;;14.70;99.90;;;;;;5075511;28;20457;-79
2023/10/21 09:20:59;;;;;;;2.03;0.77;;;14.70;99.90;;;;;;5084304;28;20576;-78
2023/10/21 09:23:26;;;;;;;1.50;0.87;;;14.70;99.90;;;;;;5082184;28;20507;-78
2023/10/21 09:25:55;;;;;;;2.27;0.77;;;14.80;99.90;;;;;;5071041;28;20537;-79
2023/10/21 09:28:22;;;;;;;1.60;0.80;;;14.80;99.90;;;;;;5070025;28;20459;-80
2023/10/21 09:30:57;;;;;;;1.40;0.70;;;14.80;99.90;;;;;;5091435;28;20459;-79
2023/10/21 09:33:24;;;;;;;1.40;0.80;;;14.90;99.90;;;;;;5092183;28;20517;-80
2023/10/21 09:36:03;;;;;;;1.40;0.80;;;15.00;99.90;;;;;;5071274;28;20453;-79
2023/10/21 09:38:35;;;;;;;2.27;1.00;;;15.10;99.90;;;;;;5072221;28;20488;-80
2023/10/21 09:41:06;;;;;;;2.23;0.90;;;14.90;99.90;;;;;;5076960;28;20480;-79
2023/10/21 09:43:37;;;;;;;1.97;0.80;;;14.90;99.90;;;;;;5093846;28;20558;-79
2023/10/21 09:46:06;;;;;;;1.50;0.60;;;14.80;99.90;;;;;;5081983;28;20460;-79
2023/10/21 09:48:38;;;;;;;1.50;0.80;;;14.80;99.90;;;;;;5073179;28;20455;-79
2023/10/21 09:51:10;;;;;;;1.90;0.90;;;14.80;99.90;;;;;;5075061;28;20856;-80
2023/10/21 09:53:40;;;;;;;1.60;0.70;;;14.80;99.90;;;;;;5073554;28;20476;-78
2023/10/21 09:56:11;;;;;;;1.73;0.70;;;14.90;99.90;;;;;;5075339;28;20439;-81
2023/10/21 09:58:40;;;;;;;1.70;1.10;;;15.00;99.90;;;;;;5075556;28;20546;-80
2023/10/21 10:01:10;;;;;;;2.00;0.90;;;14.90;99.90;;;;;;5073728;28;20482;-81
2023/10/21 10:03:39;;;;;;;1.40;0.60;;;15.00;99.90;;;;;;5074025;28;21026;-79
2023/10/21 10:06:08;;;;;;;2.23;0.60;;;15.10;99.90;;;;;;5074096;28;20462;-81
2023/10/21 10:08:35;;;;;;;1.90;0.90;;;15.40;99.90;;;;;;5073192;28;20454;-80
2023/10/21 10:11:07;;;;;;;2.60;0.77;;;15.60;99.90;;;;;;5073160;28;20510;-81
2023/10/21 10:13:42;;;;;;;2.27;0.77;;;15.80;99.90;;;;;;5076319;28;20537;-82
2023/10/21 10:16:23;;;;;;;1.50;0.60;;;16.10;99.90;;;;;;5070379;28;20537;-80
2023/10/21 10:18:51;;;;;;;1.40;0.60;;;16.70;99.90;;;;;;5074626;28;20448;-80
2023/10/21 10:21:18;;;;;;;1.50;0.60;;;17.00;99.90;;;;;;5072719;28;20570;-81
2023/10/21 10:23:50;;;;;;;2.47;0.70;;;17.00;99.90;;;;;;5075213;28;20471;-81
2023/10/21 10:26:17;;;;;;;1.80;0.73;;;17.20;99.90;;;;;;5073973;28;20453;-81
2023/10/21 10:28:46;;;;;;;2.57;0.90;;;17.70;99.90;;;;;;5070774;28;20468;-79
2023/10/21 10:31:13;;;;;;;1.63;0.70;;;18.30;99.90;;;;;;5072562;28;20468;-80
2023/10/21 10:33:51;;;;;;;2.27;0.80;;;18.50;99.90;;;;;;5073094;28;20528;-80
2023/10/21 10:36:28;;;;;;;2.20;0.90;;;18.90;99.90;;;;;;5075305;28;20441;-81
2023/10/21 10:38:55;;;;;;;2.53;0.80;;;19.00;99.90;;;;;;5073502;28;20446;-80
2023/10/21 10:41:22;;;;;;;2.10;0.80;;;19.30;99.90;;;;;;5074909;28;20482;-80
2023/10/21 10:43:54;;;;;;;1.70;0.70;;;19.50;99.90;;;;;;5076627;28;20471;-80
2023/10/21 10:46:22;;;;;;;2.13;0.80;;;20.00;99.90;;;;;;5075781;28;20443;-80
2023/10/21 10:48:49;;;;;;;1.53;0.70;;;20.30;99.90;;;;;;5075358;28;20443;-79
2023/10/21 10:51:17;;;;;;;2.67;0.70;;;20.60;99.90;;;;;;5074227;28;20551;-78
2023/10/21 10:53:46;;;;;;;2.30;0.70;;;20.30;99.90;;;;;;5071335;28;20487;-79
2023/10/21 10:56:18;;;;;;;4.10;0.80;;;20.70;99.90;;;;;;5071538;28;20462;-79
2023/10/21 10:58:46;;;;;;;4.23;0.83;;;21.00;99.90;;;;;;5071817;28;20455;-81
2023/10/21 11:01:25;;;;;;;2.63;0.83;;;21.10;99.90;;;;;;5074440;28;20482;-78
2023/10/21 11:03:56;;;;;;;2.43;0.70;;;21.70;99.90;;;;;;5071206;28;20479;-80
2023/10/21 11:06:24;;;;;;;2.53;0.90;;;21.80;99.90;;;;;;5073649;28;20547;-79
2023/10/21 11:08:51;;;;;;;2.17;0.70;;;21.90;99.90;;;;;;5073487;28;20967;-80
2023/10/21 11:11:18;;;;;;;3.23;0.90;;;22.30;99.90;;;;;;5073679;28;20927;-80
2023/10/21 11:13:46;;;;;;;2.40;0.77;;;22.70;99.90;;;;;;5073434;28;20473;-81
2023/10/21 11:16:15;;;;;;;3.60;0.83;;;23.00;99.90;;;;;;5074936;28;20522;-81
2023/10/21 11:18:43;;;;;;;3.50;1.47;;;23.20;99.90;;;;;;5072105;28;20479;-80
2023/10/21 11:21:10;;;;;;;2.43;1.20;;;23.20;99.90;;;;;;5076091;28;20506;-80
2023/10/21 11:23:37;;;;;;;4.73;0.80;;;22.90;99.90;;;;;;5080326;28;20481;-81
2023/10/21 11:26:07;;;;;;;3.70;0.90;;;22.90;99.90;;;;;;5071837;28;20984;-80
2023/10/21 11:28:36;;;;;;;1.80;0.70;;;23.30;98.00;;;;;;5072619;28;20455;-78
2023/10/21 11:31:03;;;;;;;1.60;0.60;;;22.60;97.60;;;;;;5073531;28;20565;-80
2023/10/21 11:33:30;;;;;;;2.30;0.80;;;22.10;99.90;;;;;;5078540;28;20476;-79
2023/10/21 11:35:59;;;;;;;2.20;0.70;;;21.20;99.90;;;;;;5080902;28;20548;-80
2023/10/21 11:38:28;;;;;;;4.13;0.80;;;20.60;99.90;;;;;;5077953;28;20455;-79
2023/10/21 11:40:56;;;;;;;3.90;1.30;;;20.70;99.90;;;;;;5080798;28;20458;-78
2023/10/21 11:43:25;;;;;;;2.47;0.90;;;21.40;99.90;;;;;;5077883;28;20481;-81
2023/10/21 11:45:56;;;;;;;2.83;0.83;;;21.70;99.90;;;;;;5076689;28;20442;-79
2023/10/21 11:48:24;;;;;;;4.13;0.80;;;22.40;99.90;;;;;;5078644;28;20436;-80
2023/10/21 11:50:51;;;;;;;2.10;0.90;;;22.90;99.90;;;;;;5081695;28;20450;-81
2023/10/21 11:53:20;;;;;;;1.97;0.70;;;23.10;99.90;;;;;;5078321;28;20458;-80
2023/10/21 11:56:52;;;;;;;4.30;1.03;;;22.70;99.90;;;;;;5079019;28;20765;-79
2023/10/21 12:10:45;;;;;;;1.63;0.90;;;24.40;90.40;;;;;;5040873;28;20455;-79
2023/10/21 12:13:26;;;;;;;3.30;1.10;;;23.90;90.60;;;;;;5035479;28;20450;-80
2023/10/21 12:16:25;;;;;;;2.63;0.90;;;23.80;94.20;;;;;;5077234;28;20453;-78
2023/10/21 12:22:12;;;;;;;3.40;1.00;;;22.60;87.10;;;;;;5070552;28;20516;-80
2023/10/21 12:33:08;;;;;;;4.50;1.03;;;23.20;85.80;;;;;;5079570;28;20538;-79
2023/10/21 12:35:54;;;;;;;2.67;1.00;;;23.30;84.80;;;;;;5084563;28;20482;-78
2023/10/21 12:38:34;;;;;;;2.93;1.00;;;23.40;84.80;;;;;;5079680;28;20551;-79
2023/10/21 12:41:15;;;;;;;3.03;1.10;;;23.40;84.90;;;;;;5082495;28;20549;-79
2023/10/21 12:43:48;;;;;;;4.23;2.10;;;22.90;84.80;;;;;;5083811;28;20462;-80
2023/10/21 12:46:22;;;;;;;3.13;1.00;;;23.00;86.90;;;;;;5081667;28;20902;-80
2023/10/21 12:48:52;;;;;;;3.27;1.20;;;22.20;86.40;;;;;;5078259;28;20466;-80
2023/10/21 12:51:20;;;;;;;2.70;1.13;;;21.20;90.30;;;;;;5081096;28;20961;-80
2023/10/21 12:53:47;;;;;;;3.10;1.10;;;20.90;95.90;;;;;;5079794;28;20512;-79
2023/10/21 12:56:14;;;;;;;3.07;1.13;;;21.20;97.20;;;;;;5081366;28;20467;-79
2023/10/21 12:58:43;;;;;;;5.70;1.10;;;21.40;99.90;;;;;;5085342;28;20510;-80
2023/10/21 13:01:14;;;;;;;5.00;1.60;;;22.00;99.90;;;;;;5079024;28;20530;-80
2023/10/21 13:03:41;;;;;;;4.00;1.30;;;22.80;93.50;;;;;;5084903;28;20528;-79
2023/10/21 13:06:09;;;;;;;4.83;1.20;;;23.30;91.70;;;;;;5073296;28;20459;-80
2023/10/21 13:08:36;;;;;;;2.83;1.10;;;23.80;90.80;;;;;;5082659;28;20523;-78
2023/10/21 13:11:05;;;;;;;4.07;1.20;;;23.30;89.60;;;;;;5086405;28;20976;-81
2023/10/21 13:13:35;;;;;;;2.63;1.00;;;23.80;86.40;;;;;;5086334;28;20475;-79
2023/10/21 13:16:05;;;;;;;5.53;1.33;;;24.00;81.90;;;;;;5088814;28;20473;-80